Time;durP1;ratioP1;P1;durP2;ratioP2;P2;SDS_P1;SDS_P2;PMS_P1;PMS_P2;Temp;Humidity;BMP_temperature;BMP_pressure;BME280_temperature;BME280_humidity;BME280_pressure;Samples;Min_cycle;Max_cycle;Signal;HPM_P1;HPM_P2
2022/06/11 00:00:59;;;;;;;;;;;;;;;21.23;66.68;100208.47;2029534;29;19919;-56
2022/06/11 00:02:02;;;;;;;;;;;;;;;21.23;66.72;100207.69;2031472;29;19918;-55
2022/06/11 00:03:02;;;;;;;;;;;;;;;21.22;66.86;100206.13;2037085;28;20703;-56
2022/06/11 00:04:05;;;;;;;;;;;;;;;21.23;66.83;100205.72;2036154;28;20360;-56
2022/06/11 00:05:06;;;;;;;;;;;;;;;21.22;66.56;100212.41;2040079;28;19914;-56
2022/06/11 00:06:07;;;;;;;;;;;;;;;21.21;66.66;100210.06;2037084;28;19914;-56
2022/06/11 00:07:27;;;;;;;;;;;;;;;21.22;66.64;100206.13;2040394;29;20494;-56
2022/06/11 00:08:27;;;;;;;;;;;;;;;21.22;66.50;100208.88;2031291;29;19914;-54
2022/06/11 00:09:28;;;;;;;;;;;;;;;21.21;66.75;100212.84;2029688;28;19915;-57
2022/06/11 00:10:28;;;;;;;;;;;;;;;21.22;66.62;100211.63;2030431;29;19915;-57
2022/06/11 00:11:30;;;;;;;;;;;;;;;21.21;66.54;100210.84;2039519;28;19921;-56
2022/06/11 00:12:30;;;;;;;;;;;;;;;21.21;66.48;100208.09;2036663;28;20029;-55
2022/06/11 00:13:30;;;;;;;;;;;;;;;21.20;66.78;100198.31;2040160;28;19915;-56
2022/06/11 00:14:31;;;;;;;;;;;;;;;21.20;66.62;100200.28;2036560;28;19914;-55
2022/06/11 00:15:32;;;;;;;;;;;;;;;21.21;66.67;100199.06;2035823;28;19957;-57
2022/06/11 00:16:33;;;;;;;;;;;;;;;21.21;66.71;100201.81;2038980;28;19906;-55
2022/06/11 00:17:34;;;;;;;;;;;;;;;21.21;66.60;100210.06;2024720;29;20294;-55
2022/06/11 00:18:35;;;;;;;;;;;;;;;21.20;66.79;100212.09;2028762;29;19918;-56
2022/06/11 00:19:35;;;;;;;;;;;;;;;21.20;66.58;100209.31;2035837;28;19946;-56
2022/06/11 00:20:36;;;;;;;;;;;;;;;21.20;66.80;100205.78;2038355;28;20340;-56
2022/06/11 00:21:38;;;;;;;;;;;;;;;21.21;66.72;100210.06;2031763;28;19949;-54
2022/06/11 00:22:39;;;;;;;;;;;;;;;21.21;66.67;100207.31;2030484;29;20276;-56
2022/06/11 00:23:43;;;;;;;;;;;;;;;21.20;66.65;100205.78;2039216;28;20317;-56
2022/06/11 00:24:44;;;;;;;;;;;;;;;21.20;66.64;100214.84;2037115;29;19913;-57
2022/06/11 00:25:44;;;;;;;;;;;;;;;21.20;66.60;100209.31;2040729;28;20541;-56
2022/06/11 00:26:48;;;;;;;;;;;;;;;21.21;66.49;100204.56;2033180;28;19914;-55
2022/06/11 00:27:49;;;;;;;;;;;;;;;21.20;66.83;100203.03;2035665;28;20452;-56
2022/06/11 00:28:49;;;;;;;;;;;;;;;21.20;66.61;100198.31;2039059;28;19915;-55
2022/06/11 00:29:49;;;;;;;;;;;;;;;21.20;66.69;100201.06;2034753;28;19920;-54
2022/06/11 00:30:50;;;;;;;;;;;;;;;21.20;66.70;100197.53;2041167;28;19914;-56
2022/06/11 00:31:50;;;;;;;;;;;;;;;21.19;66.90;100205.00;2039968;28;19965;-56
2022/06/11 00:32:51;;;;;;;;;;;;;;;21.19;67.20;100199.50;2034496;28;19919;-55
2022/06/11 00:33:51;;;;;;;;;;;;;;;21.19;67.53;100210.53;2038806;28;19906;-55
2022/06/11 00:34:53;;;;;;;;;;;;;;;21.19;67.38;100205.00;2035916;28;20260;-55
2022/06/11 00:35:54;;;;;;;;;;;;;;;21.20;67.46;100205.78;2036760;28;20253;-55
2022/06/11 00:36:54;;;;;;;;;;;;;;;21.19;67.19;100210.53;2038733;28;19918;-55
2022/06/11 00:37:55;;;;;;;;;;;;;;;21.18;67.49;100208.97;2038607;28;19921;-56
2022/06/11 00:38:56;;;;;;;;;;;;;;;21.19;67.44;100207.00;2039255;28;19961;-54
2022/06/11 00:39:56;;;;;;;;;;;;;;;21.18;67.61;100203.47;2036026;28;20268;-56
2022/06/11 00:40:57;;;;;;;;;;;;;;;21.18;67.44;100205.44;2037641;28;19946;-56
2022/06/11 00:42:17;;;;;;;;;;;;;;;21.17;67.63;100209.38;2039047;28;20046;-53
2022/06/11 00:43:20;;;;;;;;;;;;;;;21.18;67.44;100205.44;2037448;28;19920;-56
2022/06/11 00:44:20;;;;;;;;;;;;;;;21.17;67.24;100203.88;2035415;28;20281;-56
2022/06/11 00:45:31;;;;;;;;;;;;;;;21.18;67.35;100211.72;2036763;28;19953;-56
2022/06/11 00:46:32;;;;;;;;;;;;;;;21.17;67.32;100206.63;2036495;28;19914;-56
2022/06/11 00:47:33;;;;;;;;;;;;;;;21.16;66.63;100203.09;2033540;28;21294;-56
2022/06/11 00:48:39;;;;;;;;;;;;;;;21.16;66.77;100203.09;2038304;28;19920;-56
2022/06/11 00:49:51;;;;;;;;;;;;;;;21.15;67.12;100207.03;2037903;28;19969;-56
2022/06/11 00:50:56;;;;;;;;;;;;;;;21.17;67.23;100203.88;2034507;28;19922;-56
2022/06/11 00:52:03;;;;;;;;;;;;;;;21.16;67.28;100196.81;2035608;28;19918;-56
2022/06/11 00:53:10;;;;;;;;;;;;;;;21.16;67.22;100202.31;2039518;28;19915;-55
2022/06/11 00:54:14;;;;;;;;;;;;;;;21.16;67.49;100202.31;2032289;28;19915;-56
2022/06/11 00:55:18;;;;;;;;;;;;;;;21.15;67.48;100203.53;2034669;28;19914;-56
2022/06/11 00:56:31;;;;;;;;;;;;;;;21.16;67.20;100205.06;2033904;28;20315;-55
2022/06/11 00:57:33;;;;;;;;;;;;;;;21.15;67.33;100200.78;2029251;28;19921;-55
2022/06/11 00:58:37;;;;;;;;;;;;;;;21.15;67.33;100198.78;2030353;28;19907;-55
2022/06/11 00:59:48;;;;;;;;;;;;;;;21.14;67.15;100200.00;2032606;28;19906;-56
2022/06/11 01:00:52;;;;;;;;;;;;;;;21.15;66.99;100198.78;2027659;28;19914;-55
2022/06/11 01:01:52;;;;;;;;;;;;;;;21.15;67.33;100192.53;2023551;29;19925;-55
2022/06/11 01:02:53;;;;;;;;;;;;;;;21.14;67.49;100194.50;2031362;29;20070;-56
2022/06/11 01:03:54;;;;;;;;;;;;;;;21.13;67.32;100198.41;2030426;28;20748;-56
2022/06/11 01:04:56;;;;;;;;;;;;;;;21.15;67.37;100189.78;2030230;29;19911;-56
2022/06/11 01:06:04;;;;;;;;;;;;;;;21.14;67.51;100189.00;2031053;29;19914;-55
2022/06/11 01:07:14;;;;;;;;;;;;;;;21.14;67.43;100193.69;2032846;29;20401;-55
2022/06/11 01:08:17;;;;;;;;;;;;;;;21.14;67.57;100188.19;2029209;29;20914;-55
2022/06/11 01:09:20;;;;;;;;;;;;;;;21.13;67.65;100192.13;2030326;28;19962;-56
2022/06/11 01:10:33;;;;;;;;;;;;;;;21.14;67.93;100188.19;2032023;28;19914;-56
2022/06/11 01:11:33;;;;;;;;;;;;;;;21.13;67.59;100179.13;2029136;29;20366;-55
2022/06/11 01:12:40;;;;;;;;;;;;;;;21.13;67.61;100186.63;2033742;28;19977;-54
2022/06/11 01:13:47;;;;;;;;;;;;;;;21.13;67.42;100194.88;2034674;28;19914;-56
2022/06/11 01:15:05;;;;;;;;;;;;;;;21.14;67.55;100188.19;2037580;28;19912;-55
2022/06/11 01:16:20;;;;;;;;;;;;;;;21.13;67.27;100192.13;2028481;28;19907;-54
2022/06/11 01:17:40;;;;;;;;;;;;;;;21.12;67.65;100185.84;2036312;28;19915;-54
2022/06/11 01:18:52;;;;;;;;;;;;;;;21.12;67.99;100180.34;2032416;28;19915;-57
2022/06/11 01:19:52;;;;;;;;;;;;;;;21.13;67.69;100186.63;2029748;28;19914;-56
2022/06/11 01:20:59;;;;;;;;;;;;;;;21.13;67.87;100181.88;2036731;28;20170;-54
2022/06/11 01:21:59;;;;;;;;;;;;;;;21.12;67.66;100185.06;2036215;28;19985;-56
2022/06/11 01:23:23;;;;;;;;;;;;;;;21.11;68.07;100181.53;2036141;28;19918;-56
2022/06/11 01:24:23;;;;;;;;;;;;;;;21.11;67.86;100183.50;2022379;29;20315;-54
2022/06/11 01:25:42;;;;;;;;;;;;;;;21.10;67.95;100190.97;2018416;29;19955;-55
2022/06/11 01:27:06;;;;;;;;;;;;;;;21.09;67.96;100183.94;2027449;29;19922;-56
2022/06/11 01:28:09;;;;;;;;;;;;;;;21.07;67.94;100184.38;2034803;28;19925;-55
2022/06/11 01:29:27;;;;;;;;;;;;;;;21.06;67.64;100182.81;2028681;29;19921;-55
2022/06/11 01:30:33;;;;;;;;;;;;;;;21.07;67.99;100183.59;2032437;28;20550;-56
2022/06/11 01:31:50;;;;;;;;;;;;;;;21.05;68.00;100186.75;2034563;28;19915;-56
2022/06/11 01:33:14;;;;;;;;;;;;;;;21.05;67.91;100189.50;2035037;28;19914;-54
2022/06/11 01:34:24;;;;;;;;;;;;;;;21.05;67.76;100189.50;2024751;29;20037;-56
2022/06/11 01:35:24;;;;;;;;;;;;;;;21.04;67.78;100178.94;2023210;28;19914;-56
2022/06/11 01:36:27;;;;;;;;;;;;;;;21.04;67.70;100184.44;2032357;28;19965;-56
2022/06/11 01:37:35;;;;;;;;;;;;;;;21.04;67.84;100185.19;2031314;28;19996;-54
2022/06/11 01:38:39;;;;;;;;;;;;;;;21.03;67.75;100183.66;2032966;28;20264;-56
2022/06/11 01:39:52;;;;;;;;;;;;;;;21.03;67.71;100189.16;2029429;28;19907;-56
2022/06/11 01:41:16;;;;;;;;;;;;;;;21.03;67.42;100188.38;2034886;28;19925;-56
2022/06/11 01:42:20;;;;;;;;;;;;;;;21.03;67.73;100191.16;2021328;29;19918;-53
2022/06/11 01:43:33;;;;;;;;;;;;;;;21.03;67.82;100193.91;2032555;28;20606;-56
2022/06/11 01:44:38;;;;;;;;;;;;;;;21.03;67.94;100185.63;2031140;28;19907;-56
2022/06/11 01:45:38;;;;;;;;;;;;;;;21.03;67.96;100189.16;2035819;28;19914;-56
2022/06/11 01:46:41;;;;;;;;;;;;;;;21.03;67.97;100186.41;2036171;28;20322;-55
2022/06/11 01:47:41;;;;;;;;;;;;;;;21.03;68.21;100193.91;2037171;28;19925;-55
2022/06/11 01:49:04;;;;;;;;;;;;;;;21.02;68.02;100190.38;2038224;28;20401;-56
2022/06/11 01:50:06;;;;;;;;;;;;;;;21.04;68.03;100195.47;2033939;28;19922;-56
2022/06/11 01:51:29;;;;;;;;;;;;;;;21.02;67.95;100184.84;2045703;28;20001;-56
2022/06/11 01:52:48;;;;;;;;;;;;;;;21.01;68.08;100186.06;2003354;29;19987;-56
2022/06/11 01:54:08;;;;;;;;;;;;;;;21.02;68.21;100190.38;2025056;29;20021;-55
2022/06/11 01:55:15;;;;;;;;;;;;;;;21.01;68.25;100180.53;2027880;29;20009;-56
2022/06/11 01:56:29;;;;;;;;;;;;;;;21.02;68.35;100182.09;2035664;28;20324;-56
2022/06/11 01:57:45;;;;;;;;;;;;;;;21.02;68.33;100184.84;2033757;28;19949;-56
2022/06/11 01:58:57;;;;;;;;;;;;;;;21.03;68.35;100186.41;2034826;28;20007;-56
2022/06/11 02:00:16;;;;;;;;;;;;;;;21.02;68.51;100190.38;2038011;28;19914;-56
2022/06/11 02:01:35;;;;;;;;;;;;;;;21.03;68.66;100188.38;2029637;28;19914;-56
2022/06/11 02:02:38;;;;;;;;;;;;;;;21.02;68.67;100187.63;2032762;28;20200;-56
2022/06/11 02:03:41;;;;;;;;;;;;;;;21.02;68.88;100187.63;2038212;28;20090;-56
2022/06/11 02:04:53;;;;;;;;;;;;;;;21.02;69.17;100187.63;2032474;29;19981;-56
2022/06/11 02:05:59;;;;;;;;;;;;;;;21.02;69.08;100193.13;2033158;28;19920;-54
2022/06/11 02:06:59;;;;;;;;;;;;;;;21.01;68.99;100193.53;2034594;28;19914;-55
2022/06/11 02:08:05;;;;;;;;;;;;;;;21.01;69.13;100191.56;2029865;29;20241;-57
2022/06/11 02:09:24;;;;;;;;;;;;;;;20.99;68.71;100182.94;2034094;28;20343;-56
2022/06/11 02:10:34;;;;;;;;;;;;;;;20.99;68.43;100188.44;2034874;28;19914;-55
2022/06/11 02:11:42;;;;;;;;;;;;;;;20.99;68.61;100193.19;2029498;28;20311;-56
2022/06/11 02:12:48;;;;;;;;;;;;;;;20.98;68.63;100192.41;2028682;29;19969;-56
2022/06/11 02:14:09;;;;;;;;;;;;;;;20.98;68.95;100197.94;2031985;28;19910;-56
2022/06/11 02:15:24;;;;;;;;;;;;;;;20.98;68.80;100195.16;2029596;28;19915;-55
2022/06/11 02:16:27;;;;;;;;;;;;;;;20.96;68.52;100183.78;2028291;29;20013;-56
2022/06/11 02:17:31;;;;;;;;;;;;;;;20.96;68.87;100194.81;2033908;28;20332;-56
2022/06/11 02:18:33;;;;;;;;;;;;;;;20.96;68.99;100194.03;2033728;28;19914;-56
2022/06/11 02:19:36;;;;;;;;;;;;;;;20.97;68.94;100190.84;2036734;28;20001;-55
2022/06/11 02:20:40;;;;;;;;;;;;;;;20.96;69.18;100194.81;2034464;28;19961;-55
2022/06/11 02:21:44;;;;;;;;;;;;;;;20.96;69.40;100192.06;2034383;28;19969;-56
2022/06/11 02:22:44;;;;;;;;;;;;;;;20.96;69.16;100194.81;2031050;29;19963;-56
2022/06/11 02:23:50;;;;;;;;;;;;;;;20.96;69.36;100189.31;2028808;29;20003;-56
2022/06/11 02:24:56;;;;;;;;;;;;;;;20.97;69.44;100190.06;2031805;28;19913;-56
2022/06/11 02:25:59;;;;;;;;;;;;;;;20.96;69.78;100189.31;2036198;28;20239;-55
2022/06/11 02:27:02;;;;;;;;;;;;;;;20.97;69.34;100187.31;2032291;28;19993;-56
2022/06/11 02:28:05;;;;;;;;;;;;;;;20.96;69.41;100191.28;2036300;28;20277;-56
2022/06/11 02:29:07;;;;;;;;;;;;;;;20.96;69.33;100192.06;2032272;29;19921;-55
2022/06/11 02:30:09;;;;;;;;;;;;;;;20.96;69.82;100186.53;2028426;28;19997;-55
2022/06/11 02:31:12;;;;;;;;;;;;;;;20.96;69.88;100194.81;2029485;29;19915;-57
2022/06/11 02:32:14;;;;;;;;;;;;;;;20.95;69.74;100193.25;2027796;29;20781;-55
2022/06/11 02:33:16;;;;;;;;;;;;;;;20.95;69.77;100187.75;2025217;29;19918;-56
2022/06/11 02:34:18;;;;;;;;;;;;;;;20.96;70.08;100194.03;2028670;29;19906;-56
2022/06/11 02:35:44;;;;;;;;;;;;;;;20.94;69.76;100188.94;2031964;28;20576;-56
2022/06/11 02:36:56;;;;;;;;;;;;;;;20.95;69.66;100192.47;2010714;28;20415;-54
2022/06/11 02:37:57;;;;;;;;;;;;;;;20.95;69.68;100197.97;2029084;28;20325;-55
2022/06/11 02:38:59;;;;;;;;;;;;;;;20.94;70.08;100197.19;2028950;29;19906;-54
2022/06/11 02:40:01;;;;;;;;;;;;;;;20.94;69.81;100199.16;2027314;28;19923;-56
2022/06/11 02:41:04;;;;;;;;;;;;;;;20.94;69.77;100197.19;2018924;29;20013;-55
2022/06/11 02:42:06;;;;;;;;;;;;;;;20.93;69.96;100187.41;2021988;29;20421;-55
2022/06/11 02:43:07;;;;;;;;;;;;;;;20.93;69.86;100190.16;2033088;29;19914;-55
2022/06/11 02:44:07;;;;;;;;;;;;;;;20.94;69.49;100188.16;2029044;29;19954;-55
2022/06/11 02:45:10;;;;;;;;;;;;;;;20.93;69.91;100190.16;2030593;28;19931;-55
2022/06/11 02:47:30;;;;;;;;;;;;;;;20.92;69.68;100194.09;2028910;29;19914;-55
2022/06/11 02:48:30;;;;;;;;;;;;;;;20.92;69.70;100194.09;2035775;28;19914;-54
2022/06/11 02:49:32;;;;;;;;;;;;;;;20.92;69.65;100199.63;2038698;28;19986;-56
2022/06/11 02:50:34;;;;;;;;;;;;;;;20.92;69.70;100201.59;2028906;29;20009;-56
2022/06/11 02:51:35;;;;;;;;;;;;;;;20.92;69.48;100201.59;2033288;28;19914;-56
2022/06/11 02:52:37;;;;;;;;;;;;;;;20.91;69.45;100189.78;2035679;28;19924;-55
2022/06/11 02:53:37;;;;;;;;;;;;;;;20.92;69.65;100193.31;2030425;29;19914;-55
2022/06/11 02:54:37;;;;;;;;;;;;;;;20.91;69.62;100200.03;2033015;28;19920;-56
2022/06/11 02:55:39;;;;;;;;;;;;;;;20.91;69.78;100195.31;2029240;29;19914;-56
2022/06/11 02:56:39;;;;;;;;;;;;;;;20.90;70.13;100196.50;2026315;29;19919;-55
2022/06/11 02:57:40;;;;;;;;;;;;;;;20.90;69.95;100199.25;2035839;28;19914;-55
2022/06/11 02:58:41;;;;;;;;;;;;;;;20.90;70.30;100202.00;2032399;29;19914;-56
2022/06/11 02:59:42;;;;;;;;;;;;;;;20.90;70.33;100199.25;2027700;29;20251;-56
2022/06/11 03:00:45;;;;;;;;;;;;;;;20.90;70.31;100196.50;2037276;28;19945;-56
2022/06/11 03:01:46;;;;;;;;;;;;;;;20.90;70.13;100195.72;2037740;28;20158;-54
2022/06/11 03:02:48;;;;;;;;;;;;;;;20.89;69.72;100191.41;2032762;28;19973;-55
2022/06/11 03:03:49;;;;;;;;;;;;;;;20.89;70.15;100191.41;2029471;29;19915;-55
2022/06/11 03:04:50;;;;;;;;;;;;;;;20.89;70.22;100200.44;2030797;29;19922;-56
2022/06/11 03:05:50;;;;;;;;;;;;;;;20.89;70.40;100199.66;2029502;29;19915;-56
2022/06/11 03:06:51;;;;;;;;;;;;;;;20.89;70.33;100194.94;2029004;29;19907;-55
2022/06/11 03:07:52;;;;;;;;;;;;;;;20.88;70.37;100201.66;2031171;28;19932;-55
2022/06/11 03:08:53;;;;;;;;;;;;;;;20.88;69.90;100201.66;2037364;28;19914;-54
2022/06/11 03:09:53;;;;;;;;;;;;;;;20.87;69.68;100210.34;2033758;28;19914;-55
2022/06/11 03:10:56;;;;;;;;;;;;;;;20.86;69.16;100206.03;2028180;29;20162;-55
2022/06/11 03:11:57;;;;;;;;;;;;;;;20.86;69.18;100209.56;2020165;29;19958;-55
2022/06/11 03:12:58;;;;;;;;;;;;;;;20.86;69.02;100201.28;2028126;28;19914;-55
2022/06/11 03:13:59;;;;;;;;;;;;;;;20.87;69.10;100202.06;2029203;29;20153;-55
2022/06/11 03:14:59;;;;;;;;;;;;;;;20.85;69.65;100202.50;2026650;29;19915;-56
2022/06/11 03:16:00;;;;;;;;;;;;;;;20.86;69.57;100212.31;2026906;29;19910;-55
2022/06/11 03:17:00;;;;;;;;;;;;;;;20.86;69.78;100201.28;2037168;28;19910;-55
2022/06/11 03:18:01;;;;;;;;;;;;;;;20.85;69.74;100204.47;2029733;28;19974;-56
2022/06/11 03:19:01;;;;;;;;;;;;;;;20.84;69.77;100192.66;2027476;28;20225;-56
2022/06/11 03:20:02;;;;;;;;;;;;;;;20.84;69.74;100205.66;2028970;29;19903;-56
2022/06/11 03:21:03;;;;;;;;;;;;;;;20.84;69.82;100200.94;2027452;29;19915;-56
2022/06/11 03:22:03;;;;;;;;;;;;;;;20.85;69.93;100201.72;2029569;29;19907;-54
2022/06/11 03:23:04;;;;;;;;;;;;;;;20.84;69.69;100200.94;2034382;28;19915;-56
2022/06/11 03:24:05;;;;;;;;;;;;;;;20.84;69.56;100200.94;2032740;28;20605;-55
2022/06/11 03:25:05;;;;;;;;;;;;;;;20.84;69.65;100200.94;2028929;29;19914;-55
2022/06/11 03:26:07;;;;;;;;;;;;;;;20.82;70.18;100200.59;2027394;28;20029;-56
2022/06/11 03:27:07;;;;;;;;;;;;;;;20.83;70.10;100206.88;2027683;28;20050;-54
2022/06/11 03:28:12;;;;;;;;;;;;;;;20.84;70.08;100211.94;2032047;28;19973;-56
2022/06/11 03:29:13;;;;;;;;;;;;;;;20.84;69.92;100213.91;2032314;28;19914;-56
2022/06/11 03:30:14;;;;;;;;;;;;;;;20.82;69.91;100208.84;2031141;29;19914;-56
2022/06/11 03:31:15;;;;;;;;;;;;;;;20.83;70.13;100204.88;2033886;28;20297;-56
2022/06/11 03:32:15;;;;;;;;;;;;;;;20.83;70.28;100218.63;2033621;28;20302;-54
2022/06/11 03:33:16;;;;;;;;;;;;;;;20.82;70.15;100203.34;2037574;28;19957;-56
2022/06/11 03:34:16;;;;;;;;;;;;;;;20.82;69.91;100210.81;2033378;28;20328;-56
2022/06/11 03:35:17;;;;;;;;;;;;;;;20.82;69.89;100214.34;2034136;29;19918;-56
2022/06/11 03:36:18;;;;;;;;;;;;;;;20.82;70.42;100217.09;2028254;28;19907;-56
2022/06/11 03:37:19;;;;;;;;;;;;;;;20.81;70.12;100210.03;2031573;28;19950;-56
2022/06/11 03:38:19;;;;;;;;;;;;;;;20.82;70.38;100208.06;2033317;28;19993;-56
2022/06/11 03:39:20;;;;;;;;;;;;;;;20.81;70.42;100215.56;2026240;28;20480;-56
2022/06/11 03:40:20;;;;;;;;;;;;;;;20.81;70.63;100221.06;2029000;29;19938;-56
2022/06/11 03:41:21;;;;;;;;;;;;;;;20.82;70.60;100216.31;2030310;28;20439;-55
2022/06/11 03:42:22;;;;;;;;;;;;;;;20.80;70.61;100214.00;2030116;29;19915;-55
2022/06/11 03:43:23;;;;;;;;;;;;;;;20.81;70.15;100225.78;2033099;28;19914;-55
2022/06/11 03:44:24;;;;;;;;;;;;;;;20.80;70.03;100222.25;2033727;28;20455;-56
2022/06/11 03:45:25;;;;;;;;;;;;;;;20.81;70.50;100220.28;2036974;28;19920;-56
2022/06/11 03:46:26;;;;;;;;;;;;;;;20.81;70.52;100220.28;2031646;28;20159;-56
2022/06/11 03:47:26;;;;;;;;;;;;;;;20.80;70.46;100225.00;2029932;29;19907;-56
2022/06/11 03:48:28;;;;;;;;;;;;;;;20.80;70.50;100222.25;2028278;28;19921;-56
2022/06/11 03:49:29;;;;;;;;;;;;;;;20.80;70.53;100227.75;2040408;28;19974;-56
2022/06/11 03:50:32;;;;;;;;;;;;;;;20.79;70.25;100219.91;2038381;29;20582;-55
2022/06/11 03:51:32;;;;;;;;;;;;;;;20.79;70.22;100220.69;2035080;28;19911;-56
2022/06/11 03:52:32;;;;;;;;;;;;;;;20.78;70.47;100213.63;2036960;28;19914;-56
2022/06/11 03:53:33;;;;;;;;;;;;;;;20.78;70.57;100226.63;2034827;28;19914;-56
2022/06/11 03:54:35;;;;;;;;;;;;;;;20.78;70.19;100226.63;2034556;28;20285;-56
2022/06/11 03:55:35;;;;;;;;;;;;;;;20.78;70.60;100230.13;2037348;28;19915;-55
2022/06/11 03:56:37;;;;;;;;;;;;;;;20.78;70.78;100227.38;2036167;28;19922;-54
2022/06/11 03:57:37;;;;;;;;;;;;;;;20.77;70.68;100225.84;2033707;28;20396;-56
2022/06/11 03:58:41;;;;;;;;;;;;;;;20.77;70.81;100227.81;2036701;28;19916;-56
2022/06/11 03:59:41;;;;;;;;;;;;;;;20.77;70.48;100231.38;2025899;29;20026;-54
2022/06/11 04:02:00;;;;;;;;;;;;;;;20.76;70.58;100227.03;2026226;29;20033;-55
2022/06/11 04:03:01;;;;;;;;;;;;;;;20.77;70.85;100236.09;2027718;29;20341;-55
2022/06/11 04:04:04;;;;;;;;;;;;;;;20.76;71.11;100235.31;2030355;29;20334;-56
2022/06/11 04:05:05;;;;;;;;;;;;;;;20.76;70.99;100240.81;2029890;28;19914;-55
2022/06/11 04:06:05;;;;;;;;;;;;;;;20.76;71.26;100238.06;2025657;28;19910;-56
2022/06/11 04:07:06;;;;;;;;;;;;;;;20.77;71.46;100247.09;2029256;29;19907;-55
2022/06/11 04:08:07;;;;;;;;;;;;;;;20.77;71.09;100238.84;2028047;29;19942;-56
2022/06/11 04:09:12;;;;;;;;;;;;;;;20.76;71.49;100240.81;2030671;28;19910;-56
2022/06/11 04:10:13;;;;;;;;;;;;;;;20.76;71.15;100246.31;2035770;28;20009;-54
2022/06/11 04:11:14;;;;;;;;;;;;;;;20.75;70.86;100244.75;2036100;28;19915;-55
2022/06/11 04:12:15;;;;;;;;;;;;;;;20.76;70.57;100240.03;2039964;28;20087;-56
2022/06/11 04:13:16;;;;;;;;;;;;;;;20.75;70.63;100242.00;2037624;28;19915;-55
2022/06/11 04:14:16;;;;;;;;;;;;;;;20.75;70.19;100236.50;2034624;28;19910;-56
2022/06/11 04:15:16;;;;;;;;;;;;;;;20.76;70.33;100242.78;2037135;28;20342;-55
2022/06/11 04:16:19;;;;;;;;;;;;;;;20.76;70.12;100245.53;2035023;28;19954;-57
2022/06/11 04:17:31;;;;;;;;;;;;;;;20.75;70.21;100238.47;2036498;28;19914;-56
2022/06/11 04:18:34;;;;;;;;;;;;;;;20.75;70.28;100243.97;2030030;29;19921;-56
2022/06/11 04:19:36;;;;;;;;;;;;;;;20.74;70.27;100240.44;2027978;29;19914;-56
2022/06/11 04:20:36;;;;;;;;;;;;;;;20.74;70.44;100242.41;2037537;28;19906;-56
2022/06/11 04:21:37;;;;;;;;;;;;;;;20.73;70.18;100247.13;2035962;28;19948;-55
2022/06/11 04:22:37;;;;;;;;;;;;;;;20.73;70.02;100249.88;2036675;28;20079;-56
2022/06/11 04:23:39;;;;;;;;;;;;;;;20.73;70.16;100247.13;2037865;28;20160;-56
2022/06/11 04:24:40;;;;;;;;;;;;;;;20.73;70.10;100244.38;2036226;29;20364;-55
2022/06/11 04:25:40;;;;;;;;;;;;;;;20.73;70.04;100249.88;2040685;28;20359;-55
2022/06/11 04:26:44;;;;;;;;;;;;;;;20.72;70.01;100245.59;2039437;28;19917;-54
2022/06/11 04:27:44;;;;;;;;;;;;;;;20.73;70.10;100252.66;2035514;28;19934;-56
2022/06/11 04:28:45;;;;;;;;;;;;;;;20.71;70.37;100249.56;2035973;28;20314;-56
2022/06/11 04:29:47;;;;;;;;;;;;;;;20.73;70.36;100251.88;2039663;28;19973;-55
2022/06/11 04:30:47;;;;;;;;;;;;;;;20.72;70.36;100256.63;2032485;28;20017;-56
2022/06/11 04:31:49;;;;;;;;;;;;;;;20.72;70.47;100259.38;2034014;28;19921;-55
2022/06/11 04:32:49;;;;;;;;;;;;;;;20.72;70.44;100256.63;2032759;28;19989;-56
2022/06/11 04:33:49;;;;;;;;;;;;;;;20.71;70.38;100252.31;2034975;28;21190;-55
2022/06/11 04:34:50;;;;;;;;;;;;;;;20.72;70.21;100251.13;2038998;28;19911;-56
2022/06/11 04:35:50;;;;;;;;;;;;;;;20.71;69.94;100257.03;2032526;28;20100;-56
2022/06/11 04:36:51;;;;;;;;;;;;;;;20.72;70.17;100256.63;2039353;29;19910;-55
2022/06/11 04:37:51;;;;;;;;;;;;;;;20.72;69.92;100258.59;2027932;29;19915;-56
2022/06/11 04:38:51;;;;;;;;;;;;;;;20.71;69.92;100260.56;2031286;28;19914;-56
2022/06/11 04:39:53;;;;;;;;;;;;;;;20.72;69.87;100261.34;2033340;28;19993;-55
2022/06/11 04:40:54;;;;;;;;;;;;;;;20.72;69.72;100258.59;2029463;28;20250;-55
2022/06/11 04:41:55;;;;;;;;;;;;;;;20.71;70.01;100263.31;2034692;28;19922;-55
2022/06/11 04:42:56;;;;;;;;;;;;;;;20.69;69.80;100260.19;2029525;29;19919;-56
2022/06/11 04:43:56;;;;;;;;;;;;;;;20.70;69.72;100263.72;2028844;29;20174;-55
2022/06/11 04:44:56;;;;;;;;;;;;;;;20.70;70.09;100270.00;2034011;28;19915;-55
2022/06/11 04:45:57;;;;;;;;;;;;;;;20.69;69.72;100257.44;2035567;28;19914;-56
2022/06/11 04:46:57;;;;;;;;;;;;;;;20.70;69.64;100264.50;2034208;29;19924;-56
2022/06/11 04:47:57;;;;;;;;;;;;;;;20.70;69.71;100267.25;2034017;28;20333;-57
2022/06/11 04:48:58;;;;;;;;;;;;;;;20.69;70.04;100260.19;2040041;28;19953;-54
2022/06/11 04:50:00;;;;;;;;;;;;;;;20.69;70.18;100262.94;2028468;28;19914;-54
2022/06/11 04:51:01;;;;;;;;;;;;;;;20.69;70.13;100262.94;2029159;28;19919;-56
2022/06/11 04:52:02;;;;;;;;;;;;;;;20.69;69.80;100256.66;2029406;29;19918;-55
2022/06/11 04:53:02;;;;;;;;;;;;;;;20.69;70.14;100259.41;2030011;28;19915;-56
2022/06/11 04:54:03;;;;;;;;;;;;;;;20.68;70.40;100255.88;2029379;28;20148;-55
2022/06/11 04:55:04;;;;;;;;;;;;;;;20.67;70.61;100252.34;2034297;28;19914;-55
2022/06/11 04:56:05;;;;;;;;;;;;;;;20.67;70.69;100250.81;2025742;29;19945;-56
2022/06/11 04:57:05;;;;;;;;;;;;;;;20.66;70.59;100255.53;2040101;28;20370;-56
2022/06/11 04:58:06;;;;;;;;;;;;;;;20.66;70.77;100250.03;2028599;28;20254;-55
2022/06/11 04:59:06;;;;;;;;;;;;;;;20.65;70.98;100254.75;2030000;28;19906;-56
2022/06/11 05:00:08;;;;;;;;;;;;;;;20.67;70.43;100248.84;2030231;29;19964;-56
2022/06/11 05:01:08;;;;;;;;;;;;;;;20.65;70.52;100260.25;2031653;28;20009;-56
2022/06/11 05:02:09;;;;;;;;;;;;;;;20.67;70.03;100261.81;2037966;28;19914;-56
2022/06/11 05:03:09;;;;;;;;;;;;;;;20.66;70.46;100258.28;2035147;28;19914;-55
2022/06/11 05:04:10;;;;;;;;;;;;;;;20.65;70.89;100254.75;2038517;28;19920;-56
2022/06/11 05:05:11;;;;;;;;;;;;;;;20.64;70.91;100255.16;2032412;28;19914;-56
2022/06/11 05:06:14;;;;;;;;;;;;;;;20.64;70.59;100257.91;2024466;29;20175;-56
2022/06/11 05:07:14;;;;;;;;;;;;;;;20.65;70.34;100259.47;2021890;29;19954;-56
2022/06/11 05:08:15;;;;;;;;;;;;;;;20.66;70.30;100255.53;2028878;29;19918;-55
2022/06/11 05:09:17;;;;;;;;;;;;;;;20.66;70.14;100247.28;2029447;28;20257;-54
2022/06/11 05:10:19;;;;;;;;;;;;;;;20.66;69.77;100258.28;2030117;29;19973;-54
2022/06/11 05:11:19;;;;;;;;;;;;;;;20.65;70.34;100248.47;2034119;28;19907;-56
2022/06/11 05:12:19;;;;;;;;;;;;;;;20.65;70.13;100253.97;2038048;28;19914;-56
2022/06/11 05:13:20;;;;;;;;;;;;;;;20.65;69.96;100256.72;2036284;28;19914;-56
2022/06/11 05:14:21;;;;;;;;;;;;;;;20.65;69.90;100256.72;2037088;28;19914;-55
2022/06/11 05:15:21;;;;;;;;;;;;;;;20.64;69.76;100252.41;2030346;29;19921;-55
2022/06/11 05:16:22;;;;;;;;;;;;;;;20.64;70.06;100255.16;2031661;28;19958;-55
2022/06/11 05:17:22;;;;;;;;;;;;;;;20.64;70.21;100257.91;2037433;28;20039;-56
2022/06/11 05:18:23;;;;;;;;;;;;;;;20.63;70.25;100254.38;2036807;28;19918;-56
2022/06/11 05:19:23;;;;;;;;;;;;;;;20.64;70.10;100257.91;2035187;28;19925;-55
2022/06/11 05:20:24;;;;;;;;;;;;;;;20.63;70.56;100256.34;2038064;29;19972;-56
2022/06/11 05:21:24;;;;;;;;;;;;;;;20.62;70.40;100261.09;2034779;28;20361;-56
2022/06/11 05:22:25;;;;;;;;;;;;;;;20.63;70.92;100256.34;2034106;28;19918;-56
2022/06/11 05:23:26;;;;;;;;;;;;;;;20.63;71.03;100259.09;2030538;29;19906;-56
2022/06/11 05:24:26;;;;;;;;;;;;;;;20.62;70.44;100257.56;2032871;28;20344;-56
2022/06/11 05:25:26;;;;;;;;;;;;;;;20.62;70.33;100263.09;2035863;28;19914;-56
2022/06/11 05:26:30;;;;;;;;;;;;;;;20.62;70.63;100257.56;2036289;28;19914;-56
2022/06/11 05:27:30;;;;;;;;;;;;;;;20.61;70.48;100256.81;2035350;28;19920;-56
2022/06/11 05:28:31;;;;;;;;;;;;;;;20.61;70.36;100262.31;2037755;28;20148;-55